CheckWX is a tool to help pilots better visualize weather data.  It is not intended as a substitute for an official pre-flight weather briefing.

12:49:58 UTC

KMBL TAF
Manistee Co-Blacker Airport
Manistee, Michigan, USA
KMBL 191133Z 1912/2012 14005KT P6SM SCT200 WS015/23030KT FM191400 19008KT P6SM SCT200 FM191800 22007KT P6SM FEW200 FM192200 VRB04KT P6SM SCT200 FM200300 00000KT P6SM BKN100

Sep-19@
12:00 UTC

Sep-19 @ 12:00 UTC

Sep-19@
14:00 UTC

Sep-19 @ 14:00 UTC

KMBL 191133Z 1912/2012 14005KT P6SM SCT200 WS015/23030KT
Wind
  • 140° at 5 KTS
Cloud Levels
  • Scattered at 20,000' AGL

Sep-19@
14:00 UTC

Sep-19 @ 14:00 UTC

Sep-19@
18:00 UTC

Sep-19 @ 18:00 UTC

FM191400 19008KT P6SM SCT200

From

From Standard forecast or significant change

Wind
  • 190° at 8 KTS
Cloud Levels
  • Scattered at 20,000' AGL

Sep-19@
18:00 UTC

Sep-19 @ 18:00 UTC

Sep-19@
22:00 UTC

Sep-19 @ 22:00 UTC

FM191800 22007KT P6SM FEW200

From

From Standard forecast or significant change

Wind
  • 220° at 7 KTS
Cloud Levels
  • Few at 20,000' AGL

Sep-19@
22:00 UTC

Sep-19 @ 22:00 UTC

Sep-20@
03:00 UTC

Sep-20 @ 03:00 UTC

FM192200 VRB04KT P6SM SCT200

From

From Standard forecast or significant change

Wind
  • Variable at 4 KTS
Cloud Levels
  • Scattered at 20,000' AGL

Sep-20@
03:00 UTC

Sep-20 @ 03:00 UTC

Sep-20@
12:00 UTC

Sep-20 @ 12:00 UTC

FM200300 00000KT P6SM BKN100

From

From Standard forecast or significant change

Cloud Levels
  • Broken at 10,000' AGL